sensor_id;sensor_type;location;lat;lon;timestamp;pressure;altitude;pressure_sealevel;temperature;humidity
10060;BME280;5069;49.306;8.636;2024-03-29T00:02:09;98714.91;;;9.19;100.00
10060;BME280;5069;49.306;8.636;2024-03-29T00:05:09;98707.09;;;9.17;100.00
10060;BME280;5069;49.306;8.636;2024-03-29T00:08:10;98698.13;;;9.21;100.00
10060;BME280;5069;49.306;8.636;2024-03-29T00:11:10;98689.31;;;9.22;99.12
10060;BME280;5069;49.306;8.636;2024-03-29T00:14:11;98685.72;;;9.23;100.00
10060;BME280;5069;49.306;8.636;2024-03-29T00:17:11;98676.91;;;9.24;99.54
10060;BME280;5069;49.306;8.636;2024-03-29T00:20:12;98664.53;;;9.26;98.65
10060;BME280;5069;49.306;8.636;2024-03-29T00:23:12;98654.03;;;9.26;100.00
10060;BME280;5069;49.306;8.636;2024-03-29T00:26:13;98651.41;;;9.26;97.81
10060;BME280;5069;49.306;8.636;2024-03-29T00:29:13;98660.66;;;9.33;95.71
10060;BME280;5069;49.306;8.636;2024-03-29T00:32:14;98659.09;;;9.29;95.84
10060;BME280;5069;49.306;8.636;2024-03-29T00:35:15;98662.69;;;9.28;97.18
10060;BME280;5069;49.306;8.636;2024-03-29T00:38:16;98659.88;;;9.31;96.92
10060;BME280;5069;49.306;8.636;2024-03-29T00:41:16;98653.50;;;9.35;93.18
10060;BME280;5069;49.306;8.636;2024-03-29T00:44:18;98658.41;;;9.41;90.48
10060;BME280;5069;49.306;8.636;2024-03-29T00:47:18;98644.53;;;9.39;92.48
10060;BME280;5069;49.306;8.636;2024-03-29T00:50:19;98647.03;;;9.41;88.90
10060;BME280;5069;49.306;8.636;2024-03-29T00:53:20;98643.22;;;9.46;86.20
10060;BME280;5069;49.306;8.636;2024-03-29T00:56:20;98638.22;;;9.42;86.50
10060;BME280;5069;49.306;8.636;2024-03-29T00:59:21;98628.38;;;9.45;87.63
10060;BME280;5069;49.306;8.636;2024-03-29T01:02:23;98630.00;;;9.48;87.80
10060;BME280;5069;49.306;8.636;2024-03-29T01:05:24;98612.59;;;9.45;88.89
10060;BME280;5069;49.306;8.636;2024-03-29T01:08:24;98609.03;;;9.46;89.04
10060;BME280;5069;49.306;8.636;2024-03-29T01:11:25;98606.41;;;9.46;88.56
10060;BME280;5069;49.306;8.636;2024-03-29T01:14:25;98604.81;;;9.44;86.67
10060;BME280;5069;49.306;8.636;2024-03-29T01:17:26;98604.69;;;9.45;87.13
10060;BME280;5069;49.306;8.636;2024-03-29T01:20:26;98587.75;;;9.51;88.56
10060;BME280;5069;49.306;8.636;2024-03-29T01:23:27;98585.94;;;9.51;86.73
10060;BME280;5069;49.306;8.636;2024-03-29T01:26:27;98602.41;;;9.55;83.62
10060;BME280;5069;49.306;8.636;2024-03-29T01:29:28;98604.78;;;9.60;82.22
10060;BME280;5069;49.306;8.636;2024-03-29T01:32:28;98601.22;;;9.61;81.31
10060;BME280;5069;49.306;8.636;2024-03-29T01:35:29;98578.38;;;9.61;82.17
10060;BME280;5069;49.306;8.636;2024-03-29T01:38:30;98572.53;;;9.56;83.25
10060;BME280;5069;49.306;8.636;2024-03-29T01:41:30;98547.84;;;9.59;84.22
10060;BME280;5069;49.306;8.636;2024-03-29T01:44:31;98559.28;;;9.58;83.84
10060;BME280;5069;49.306;8.636;2024-03-29T01:47:32;98567.94;;;9.60;82.27
10060;BME280;5069;49.306;8.636;2024-03-29T01:50:33;98562.41;;;9.64;82.14
10060;BME280;5069;49.306;8.636;2024-03-29T01:53:34;98569.28;;;9.67;81.15
10060;BME280;5069;49.306;8.636;2024-03-29T01:56:35;98583.00;;;9.72;80.69
10060;BME280;5069;49.306;8.636;2024-03-29T01:59:37;98595.13;;;9.74;81.28
10060;BME280;5069;49.306;8.636;2024-03-29T02:02:37;98599.56;;;9.74;81.24
10060;BME280;5069;49.306;8.636;2024-03-29T02:05:42;98607.25;;;9.77;81.35
10060;BME280;5069;49.306;8.636;2024-03-29T02:08:43;98600.13;;;9.79;82.07
10060;BME280;5069;49.306;8.636;2024-03-29T02:11:44;98601.72;;;9.81;82.49
10060;BME280;5069;49.306;8.636;2024-03-29T02:14:45;98594.69;;;9.82;82.46
10060;BME280;5069;49.306;8.636;2024-03-29T02:17:45;98587.72;;;9.81;82.85
10060;BME280;5069;49.306;8.636;2024-03-29T02:20:46;98577.03;;;9.84;83.67
10060;BME280;5069;49.306;8.636;2024-03-29T02:24:23;98573.47;;;9.85;82.46
10060;BME280;5069;49.306;8.636;2024-03-29T02:27:18;98564.06;;;9.95;80.68
10060;BME280;5069;49.306;8.636;2024-03-29T02:30:18;98577.03;;;9.98;80.31
10060;BME280;5069;49.306;8.636;2024-03-29T02:33:22;98567.06;;;10.03;79.69
10060;BME280;5069;49.306;8.636;2024-03-29T02:36:23;98567.75;;;10.07;80.07
10060;BME280;5069;49.306;8.636;2024-03-29T02:39:23;98566.53;;;10.12;79.02
10060;BME280;5069;49.306;8.636;2024-03-29T02:42:24;98578.78;;;10.13;79.01
10060;BME280;5069;49.306;8.636;2024-03-29T02:45:24;98575.97;;;10.16;78.65
10060;BME280;5069;49.306;8.636;2024-03-29T02:48:25;98594.31;;;10.18;78.15
10060;BME280;5069;49.306;8.636;2024-03-29T02:51:25;98598.72;;;10.17;78.99
10060;BME280;5069;49.306;8.636;2024-03-29T02:54:26;98590.84;;;10.17;79.65
10060;BME280;5069;49.306;8.636;2024-03-29T02:57:27;98604.34;;;10.25;77.43
10060;BME280;5069;49.306;8.636;2024-03-29T03:00:27;98589.53;;;10.24;78.53
10060;BME280;5069;49.306;8.636;2024-03-29T03:03:28;98616.88;;;10.22;79.47
10060;BME280;5069;49.306;8.636;2024-03-29T03:06:28;98610.75;;;10.21;79.92
10060;BME280;5069;49.306;8.636;2024-03-29T03:09:29;98603.91;;;10.19;82.06
10060;BME280;5069;49.306;8.636;2024-03-29T03:12:48;98599.50;;;10.19;82.11
10060;BME280;5069;49.306;8.636;2024-03-29T03:15:49;98606.63;;;10.17;81.60
10060;BME280;5069;49.306;8.636;2024-03-29T03:18:50;98601.50;;;10.14;82.37
10060;BME280;5069;49.306;8.636;2024-03-29T03:21:51;98605.31;;;10.24;81.27
10060;BME280;5069;49.306;8.636;2024-03-29T03:24:51;98606.06;;;10.26;80.05
10060;BME280;5069;49.306;8.636;2024-03-29T03:27:52;98622.25;;;10.34;78.60
10060;BME280;5069;49.306;8.636;2024-03-29T03:30:53;98607.22;;;10.37;78.38
10060;BME280;5069;49.306;8.636;2024-03-29T03:33:54;98628.47;;;10.33;78.86
10060;BME280;5069;49.306;8.636;2024-03-29T03:36:54;98644.81;;;10.39;76.73
10060;BME280;5069;49.306;8.636;2024-03-29T03:39:55;98650.84;;;10.41;76.93
10060;BME280;5069;49.306;8.636;2024-03-29T03:42:55;98647.75;;;10.34;79.14
10060;BME280;5069;49.306;8.636;2024-03-29T03:46:00;98637.28;;;10.32;81.86
10060;BME280;5069;49.306;8.636;2024-03-29T03:49:01;98632.88;;;10.33;83.08
10060;BME280;5069;49.306;8.636;2024-03-29T03:52:02;98635.41;;;10.34;85.89
10060;BME280;5069;49.306;8.636;2024-03-29T03:55:03;98628.09;;;10.40;86.45
10060;BME280;5069;49.306;8.636;2024-03-29T03:58:04;98617.84;;;10.35;93.79
10060;BME280;5069;49.306;8.636;2024-03-29T04:01:05;98598.72;;;10.31;97.34
10060;BME280;5069;49.306;8.636;2024-03-29T04:04:05;98584.25;;;10.24;100.00
10060;BME280;5069;49.306;8.636;2024-03-29T04:07:06;98581.16;;;10.18;100.00
10060;BME280;5069;49.306;8.636;2024-03-29T04:10:07;98571.47;;;10.18;100.00
10060;BME280;5069;49.306;8.636;2024-03-29T04:13:08;98570.53;;;10.19;100.00
10060;BME280;5069;49.306;8.636;2024-03-29T04:16:08;98573.72;;;10.24;100.00
10060;BME280;5069;49.306;8.636;2024-03-29T04:19:09;98568.16;;;10.29;100.00
10060;BME280;5069;49.306;8.636;2024-03-29T04:22:09;98562.69;;;10.32;100.00
10060;BME280;5069;49.306;8.636;2024-03-29T04:25:10;98562.63;;;10.33;97.74
10060;BME280;5069;49.306;8.636;2024-03-29T04:28:11;98564.88;;;10.40;97.46
10060;BME280;5069;49.306;8.636;2024-03-29T04:31:11;98560.38;;;10.42;100.00
10060;BME280;5069;49.306;8.636;2024-03-29T04:34:12;98572.56;;;10.43;100.00
10060;BME280;5069;49.306;8.636;2024-03-29T04:37:13;98576.91;;;10.44;99.62
10060;BME280;5069;49.306;8.636;2024-03-29T04:40:14;98585.19;;;10.52;98.27
10060;BME280;5069;49.306;8.636;2024-03-29T04:43:14;98588.13;;;10.47;99.40
10060;BME280;5069;49.306;8.636;2024-03-29T04:46:15;98573.53;;;10.42;100.00
10060;BME280;5069;49.306;8.636;2024-03-29T04:49:15;98579.81;;;10.39;100.00
10060;BME280;5069;49.306;8.636;2024-03-29T04:52:17;98570.34;;;10.37;100.00
10060;BME280;5069;49.306;8.636;2024-03-29T04:55:18;98579.19;;;10.35;100.00
10060;BME280;5069;49.306;8.636;2024-03-29T04:58:19;98565.25;;;10.33;100.00
10060;BME280;5069;49.306;8.636;2024-03-29T05:01:19;98560.19;;;10.30;100.00
10060;BME280;5069;49.306;8.636;2024-03-29T05:04:20;98569.66;;;10.33;100.00
10060;BME280;5069;49.306;8.636;2024-03-29T05:07:25;98560.91;;;10.32;100.00
10060;BME280;5069;49.306;8.636;2024-03-29T05:10:26;98559.06;;;10.34;100.00
10060;BME280;5069;49.306;8.636;2024-03-29T05:13:26;98558.19;;;10.34;100.00
10060;BME280;5069;49.306;8.636;2024-03-29T05:16:27;98554.81;;;10.32;100.00
10060;BME280;5069;49.306;8.636;2024-03-29T05:19:27;98561.59;;;10.36;100.00
10060;BME280;5069;49.306;8.636;2024-03-29T05:22:28;98560.53;;;10.39;100.00
10060;BME280;5069;49.306;8.636;2024-03-29T05:25:28;98550.84;;;10.39;100.00
10060;BME280;5069;49.306;8.636;2024-03-29T05:28:29;98559.31;;;10.44;98.60
10060;BME280;5069;49.306;8.636;2024-03-29T05:31:29;98546.81;;;10.48;99.52
10060;BME280;5069;49.306;8.636;2024-03-29T05:34:30;98555.44;;;10.50;100.00
10060;BME280;5069;49.306;8.636;2024-03-29T05:37:31;98551.88;;;10.51;97.73
10060;BME280;5069;49.306;8.636;2024-03-29T05:40:32;98551.69;;;10.54;94.80
10060;BME280;5069;49.306;8.636;2024-03-29T05:43:32;98568.16;;;10.57;92.98
10060;BME280;5069;49.306;8.636;2024-03-29T05:46:33;98569.56;;;10.63;93.27
10060;BME280;5069;49.306;8.636;2024-03-29T05:49:34;98586.31;;;10.62;93.63
10060;BME280;5069;49.306;8.636;2024-03-29T05:52:34;98584.59;;;10.61;93.03
10060;BME280;5069;49.306;8.636;2024-03-29T05:55:35;98590.34;;;10.67;91.53
10060;BME280;5069;49.306;8.636;2024-03-29T05:58:35;98600.03;;;10.67;90.71
10060;BME280;5069;49.306;8.636;2024-03-29T06:01:36;98618.69;;;10.64;92.03
10060;BME280;5069;49.306;8.636;2024-03-29T06:04:37;98615.75;;;10.68;92.86
10060;BME280;5069;49.306;8.636;2024-03-29T06:07:38;98619.41;;;10.66;94.66
10060;BME280;5069;49.306;8.636;2024-03-29T06:10:39;98618.78;;;10.62;96.61
10060;BME280;5069;49.306;8.636;2024-03-29T06:13:39;98616.59;;;10.55;100.00
10060;BME280;5069;49.306;8.636;2024-03-29T06:16:55;98627.13;;;10.55;100.00
10060;BME280;5069;49.306;8.636;2024-03-29T06:20:14;98618.50;;;10.53;100.00
10060;BME280;5069;49.306;8.636;2024-03-29T06:23:15;98613.97;;;10.55;100.00
10060;BME280;5069;49.306;8.636;2024-03-29T06:26:15;98616.22;;;10.61;99.36
10060;BME280;5069;49.306;8.636;2024-03-29T06:29:16;98599.19;;;10.66;97.25
10060;BME280;5069;49.306;8.636;2024-03-29T06:32:17;98601.53;;;10.71;96.45
10060;BME280;5069;49.306;8.636;2024-03-29T06:35:18;98595.88;;;10.77;95.03
10060;BME280;5069;49.306;8.636;2024-03-29T06:38:22;98591.47;;;10.77;96.37
10060;BME280;5069;49.306;8.636;2024-03-29T06:41:22;98580.91;;;10.77;96.30
10060;BME280;5069;49.306;8.636;2024-03-29T06:44:23;98589.59;;;10.80;94.38
10060;BME280;5069;49.306;8.636;2024-03-29T06:47:24;98581.19;;;10.87;92.44
10060;BME280;5069;49.306;8.636;2024-03-29T06:50:25;98570.28;;;10.93;88.48
10060;BME280;5069;49.306;8.636;2024-03-29T06:53:25;98578.91;;;10.95;89.15
10060;BME280;5069;49.306;8.636;2024-03-29T06:56:26;98571.75;;;10.97;88.39
10060;BME280;5069;49.306;8.636;2024-03-29T06:59:26;98579.38;;;11.02;82.72
10060;BME280;5069;49.306;8.636;2024-03-29T07:02:28;98577.94;;;11.10;80.92
10060;BME280;5069;49.306;8.636;2024-03-29T07:05:28;98584.88;;;11.11;81.54
10060;BME280;5069;49.306;8.636;2024-03-29T07:08:29;98589.75;;;11.17;81.11
10060;BME280;5069;49.306;8.636;2024-03-29T07:11:29;98590.31;;;11.23;78.06
10060;BME280;5069;49.306;8.636;2024-03-29T07:14:30;98593.66;;;11.39;74.17
10060;BME280;5069;49.306;8.636;2024-03-29T07:17:33;98596.84;;;11.44;73.96
10060;BME280;5069;49.306;8.636;2024-03-29T07:20:34;98593.91;;;11.48;72.10
10060;BME280;5069;49.306;8.636;2024-03-29T07:23:35;98591.16;;;11.50;74.97
10060;BME280;5069;49.306;8.636;2024-03-29T07:26:35;98606.69;;;11.54;73.52
10060;BME280;5069;49.306;8.636;2024-03-29T07:29:36;98601.94;;;11.59;72.90
10060;BME280;5069;49.306;8.636;2024-03-29T07:32:37;98616.53;;;11.65;71.64
10060;BME280;5069;49.306;8.636;2024-03-29T07:35:38;98620.75;;;11.68;71.27
10060;BME280;5069;49.306;8.636;2024-03-29T07:38:42;98615.06;;;11.61;75.95
10060;BME280;5069;49.306;8.636;2024-03-29T07:41:43;98616.94;;;11.59;81.89
10060;BME280;5069;49.306;8.636;2024-03-29T07:44:43;98625.47;;;11.50;88.42
10060;BME280;5069;49.306;8.636;2024-03-29T07:47:44;98632.41;;;11.51;91.10
10060;BME280;5069;49.306;8.636;2024-03-29T07:50:46;98635.25;;;11.48;97.63
10060;BME280;5069;49.306;8.636;2024-03-29T07:53:46;98629.75;;;11.38;100.00
10060;BME280;5069;49.306;8.636;2024-03-29T07:56:47;98629.09;;;11.35;100.00
10060;BME280;5069;49.306;8.636;2024-03-29T07:59:50;98638.16;;;11.31;100.00
10060;BME280;5069;49.306;8.636;2024-03-29T08:02:50;98647.38;;;11.24;100.00
10060;BME280;5069;49.306;8.636;2024-03-29T08:05:59;98643.56;;;11.15;100.00
10060;BME280;5069;49.306;8.636;2024-03-29T08:09:00;98638.84;;;11.06;100.00
10060;BME280;5069;49.306;8.636;2024-03-29T08:12:01;98641.63;;;11.04;100.00
10060;BME280;5069;49.306;8.636;2024-03-29T08:15:01;98649.34;;;10.93;100.00
10060;BME280;5069;49.306;8.636;2024-03-29T08:18:02;98653.00;;;10.91;100.00
10060;BME280;5069;49.306;8.636;2024-03-29T08:21:03;98667.03;;;10.91;100.00
10060;BME280;5069;49.306;8.636;2024-03-29T08:24:04;98684.56;;;10.92;100.00
10060;BME280;5069;49.306;8.636;2024-03-29T08:27:05;98692.06;;;10.84;100.00
10060;BME280;5069;49.306;8.636;2024-03-29T08:30:06;98700.28;;;10.80;100.00
10060;BME280;5069;49.306;8.636;2024-03-29T08:33:06;98708.63;;;10.72;100.00
10060;BME280;5069;49.306;8.636;2024-03-29T08:36:07;98715.03;;;10.68;100.00
10060;BME280;5069;49.306;8.636;2024-03-29T08:39:08;98718.03;;;10.62;100.00
10060;BME280;5069;49.306;8.636;2024-03-29T08:42:09;98727.06;;;10.58;100.00
10060;BME280;5069;49.306;8.636;2024-03-29T08:45:11;98722.75;;;10.57;100.00
10060;BME280;5069;49.306;8.636;2024-03-29T08:48:13;98730.66;;;10.57;100.00
10060;BME280;5069;49.306;8.636;2024-03-29T08:51:14;98729.88;;;10.55;100.00
10060;BME280;5069;49.306;8.636;2024-03-29T08:54:15;98737.78;;;10.55;100.00
10060;BME280;5069;49.306;8.636;2024-03-29T08:57:15;98744.00;;;10.54;100.00
10060;BME280;5069;49.306;8.636;2024-03-29T09:00:16;98741.47;;;10.52;100.00
10060;BME280;5069;49.306;8.636;2024-03-29T09:03:17;98759.41;;;10.46;100.00
10060;BME280;5069;49.306;8.636;2024-03-29T09:06:17;98774.28;;;10.47;100.00
10060;BME280;5069;49.306;8.636;2024-03-29T09:09:18;98782.34;;;10.44;100.00
10060;BME280;5069;49.306;8.636;2024-03-29T09:12:18;98788.41;;;10.46;100.00
10060;BME280;5069;49.306;8.636;2024-03-29T09:15:19;98793.47;;;10.49;100.00
10060;BME280;5069;49.306;8.636;2024-03-29T09:18:19;98800.53;;;10.48;100.00
10060;BME280;5069;49.306;8.636;2024-03-29T09:21:23;98798.56;;;10.52;100.00
10060;BME280;5069;49.306;8.636;2024-03-29T09:24:24;98798.22;;;10.58;100.00
10060;BME280;5069;49.306;8.636;2024-03-29T09:27:26;98815.75;;;10.73;100.00
10060;BME280;5069;49.306;8.636;2024-03-29T09:30:27;98813.88;;;10.75;100.00
10060;BME280;5069;49.306;8.636;2024-03-29T09:33:28;98815.78;;;10.87;100.00
10060;BME280;5069;49.306;8.636;2024-03-29T09:36:28;98827.25;;;10.86;100.00
10060;BME280;5069;49.306;8.636;2024-03-29T09:39:29;98841.66;;;10.81;100.00
10060;BME280;5069;49.306;8.636;2024-03-29T09:42:32;98845.03;;;10.83;100.00
10060;BME280;5069;49.306;8.636;2024-03-29T09:45:34;98843.25;;;10.83;100.00
10060;BME280;5069;49.306;8.636;2024-03-29T09:48:37;98837.63;;;10.89;100.00
10060;BME280;5069;49.306;8.636;2024-03-29T09:51:39;98827.75;;;10.93;100.00
10060;BME280;5069;49.306;8.636;2024-03-29T09:54:40;98829.75;;;11.03;100.00
10060;BME280;5069;49.306;8.636;2024-03-29T09:57:40;98837.16;;;11.11;100.00
10060;BME280;5069;49.306;8.636;2024-03-29T10:00:41;98822.41;;;11.08;100.00
10060;BME280;5069;49.306;8.636;2024-03-29T10:03:45;98820.53;;;11.10;100.00
10060;BME280;5069;49.306;8.636;2024-03-29T10:06:48;98816.75;;;11.14;100.00
10060;BME280;5069;49.306;8.636;2024-03-29T10:09:54;98818.53;;;11.28;100.00
10060;BME280;5069;49.306;8.636;2024-03-29T10:12:55;98823.00;;;11.28;100.00
10060;BME280;5069;49.306;8.636;2024-03-29T10:15:56;98818.63;;;11.41;100.00
10060;BME280;5069;49.306;8.636;2024-03-29T10:19:00;98815.06;;;11.42;100.00
10060;BME280;5069;49.306;8.636;2024-03-29T10:22:07;98806.69;;;11.49;100.00
10060;BME280;5069;49.306;8.636;2024-03-29T10:25:08;98808.25;;;11.52;100.00
10060;BME280;5069;49.306;8.636;2024-03-29T10:28:08;98814.28;;;11.54;100.00
10060;BME280;5069;49.306;8.636;2024-03-29T10:31:09;98808.97;;;11.68;100.00
10060;BME280;5069;49.306;8.636;2024-03-29T10:34:10;98793.34;;;11.79;100.00
10060;BME280;5069;49.306;8.636;2024-03-29T10:37:10;98795.31;;;11.90;100.00
10060;BME280;5069;49.306;8.636;2024-03-29T10:40:11;98791.78;;;12.04;100.00
10060;BME280;5069;49.306;8.636;2024-03-29T10:43:16;98806.19;;;12.12;100.00
10060;BME280;5069;49.306;8.636;2024-03-29T10:46:17;98797.28;;;12.13;100.00
10060;BME280;5069;49.306;8.636;2024-03-29T10:49:18;98783.81;;;12.18;100.00
10060;BME280;5069;49.306;8.636;2024-03-29T10:52:21;98774.50;;;12.25;100.00
10060;BME280;5069;49.306;8.636;2024-03-29T10:55:21;98774.50;;;12.25;100.00
10060;BME280;5069;49.306;8.636;2024-03-29T10:58:25;98772.31;;;12.19;100.00
10060;BME280;5069;49.306;8.636;2024-03-29T11:01:30;98756.34;;;12.20;100.00
10060;BME280;5069;49.306;8.636;2024-03-29T11:04:33;98750.19;;;12.20;100.00
10060;BME280;5069;49.306;8.636;2024-03-29T11:07:40;98744.91;;;12.20;100.00
10060;BME280;5069;49.306;8.636;2024-03-29T11:10:44;98739.44;;;12.23;100.00
10060;BME280;5069;49.306;8.636;2024-03-29T11:13:52;98728.88;;;12.23;100.00
10060;BME280;5069;49.306;8.636;2024-03-29T11:16:54;98710.72;;;12.31;100.00
10060;BME280;5069;49.306;8.636;2024-03-29T11:19:59;98720.44;;;12.43;100.00
10060;BME280;5069;49.306;8.636;2024-03-29T11:23:03;98714.56;;;12.52;100.00
10060;BME280;5069;49.306;8.636;2024-03-29T11:26:06;98721.84;;;12.61;100.00
10060;BME280;5069;49.306;8.636;2024-03-29T11:29:18;98720.59;;;12.67;100.00
10060;BME280;5069;49.306;8.636;2024-03-29T11:32:38;98709.06;;;12.68;100.00
10060;BME280;5069;49.306;8.636;2024-03-29T11:35:42;98697.84;;;12.77;100.00
10060;BME280;5069;49.306;8.636;2024-03-29T11:38:44;98697.66;;;12.93;100.00
10060;BME280;5069;49.306;8.636;2024-03-29T11:41:49;98704.69;;;13.05;100.00
10060;BME280;5069;49.306;8.636;2024-03-29T11:44:50;98703.53;;;13.09;100.00
10060;BME280;5069;49.306;8.636;2024-03-29T11:47:50;98713.59;;;13.04;100.00
10060;BME280;5069;49.306;8.636;2024-03-29T11:50:52;98724.28;;;13.02;100.00
10060;BME280;5069;49.306;8.636;2024-03-29T11:53:53;98727.25;;;12.98;100.00
10060;BME280;5069;49.306;8.636;2024-03-29T11:56:53;98729.25;;;12.94;100.00
10060;BME280;5069;49.306;8.636;2024-03-29T11:59:54;98744.50;;;12.91;100.00
10060;BME280;5069;49.306;8.636;2024-03-29T12:02:55;98753.91;;;12.82;100.00
10060;BME280;5069;49.306;8.636;2024-03-29T12:05:59;98751.25;;;12.82;100.00
10060;BME280;5069;49.306;8.636;2024-03-29T12:09:03;98759.50;;;12.77;100.00
10060;BME280;5069;49.306;8.636;2024-03-29T12:12:07;98760.13;;;12.68;100.00
10060;BME280;5069;49.306;8.636;2024-03-29T12:15:10;98766.78;;;12.61;100.00
10060;BME280;5069;49.306;8.636;2024-03-29T12:18:12;98776.41;;;12.62;100.00
10060;BME280;5069;49.306;8.636;2024-03-29T12:21:13;98775.63;;;12.48;100.00
10060;BME280;5069;49.306;8.636;2024-03-29T12:24:16;98774.25;;;12.42;100.00
10060;BME280;5069;49.306;8.636;2024-03-29T12:27:17;98784.09;;;12.40;100.00
10060;BME280;5069;49.306;8.636;2024-03-29T12:30:18;98780.69;;;12.38;100.00
10060;BME280;5069;49.306;8.636;2024-03-29T12:33:20;98788.53;;;12.39;100.00
10060;BME280;5069;49.306;8.636;2024-03-29T12:36:27;98791.25;;;12.38;100.00
10060;BME280;5069;49.306;8.636;2024-03-29T12:39:30;98805.63;;;12.34;100.00
10060;BME280;5069;49.306;8.636;2024-03-29T12:42:33;98809.44;;;12.30;100.00
10060;BME280;5069;49.306;8.636;2024-03-29T12:45:35;98820.19;;;12.27;100.00
10060;BME280;5069;49.306;8.636;2024-03-29T12:48:36;98812.47;;;12.24;100.00
10060;BME280;5069;49.306;8.636;2024-03-29T12:51:39;98800.94;;;12.25;100.00
10060;BME280;5069;49.306;8.636;2024-03-29T12:54:40;98811.31;;;12.28;100.00
10060;BME280;5069;49.306;8.636;2024-03-29T12:57:41;98815.34;;;12.33;100.00
10060;BME280;5069;49.306;8.636;2024-03-29T13:00:44;98833.75;;;12.35;100.00
10060;BME280;5069;49.306;8.636;2024-03-29T13:03:45;98837.34;;;12.34;100.00
10060;BME280;5069;49.306;8.636;2024-03-29T13:06:45;98834.78;;;12.32;100.00
10060;BME280;5069;49.306;8.636;2024-03-29T13:09:46;98834.47;;;12.37;100.00
10060;BME280;5069;49.306;8.636;2024-03-29T13:12:47;98842.22;;;12.40;100.00
10060;BME280;5069;49.306;8.636;2024-03-29T13:15:50;98845.81;;;12.39;100.00
10060;BME280;5069;49.306;8.636;2024-03-29T13:18:52;98852.97;;;12.37;100.00
10060;BME280;5069;49.306;8.636;2024-03-29T13:21:52;98841.38;;;12.39;100.00
10060;BME280;5069;49.306;8.636;2024-03-29T13:24:53;98837.34;;;12.34;100.00
10060;BME280;5069;49.306;8.636;2024-03-29T13:27:54;98810.28;;;12.43;100.00
10060;BME280;5069;49.306;8.636;2024-03-29T13:30:55;98818.66;;;12.50;100.00
10060;BME280;5069;49.306;8.636;2024-03-29T13:33:57;98872.41;;;12.36;100.00
10060;BME280;5069;49.306;8.636;2024-03-29T13:37:04;98898.88;;;12.22;100.00
10060;BME280;5069;49.306;8.636;2024-03-29T13:40:08;98921.34;;;12.15;100.00
10060;BME280;5069;49.306;8.636;2024-03-29T13:43:09;98909.47;;;12.08;100.00
10060;BME280;5069;49.306;8.636;2024-03-29T13:46:09;98895.81;;;12.01;100.00
10060;BME280;5069;49.306;8.636;2024-03-29T13:49:10;98878.84;;;12.05;100.00
10060;BME280;5069;49.306;8.636;2024-03-29T13:52:12;98881.38;;;12.07;100.00
10060;BME280;5069;49.306;8.636;2024-03-29T13:55:16;98884.56;;;12.12;100.00
10060;BME280;5069;49.306;8.636;2024-03-29T13:58:17;98857.66;;;12.19;100.00
10060;BME280;5069;49.306;8.636;2024-03-29T14:01:17;98875.97;;;12.22;100.00
10060;BME280;5069;49.306;8.636;2024-03-29T14:04:18;98871.78;;;12.32;100.00
10060;BME280;5069;49.306;8.636;2024-03-29T14:07:18;98915.41;;;12.52;100.00
10060;BME280;5069;49.306;8.636;2024-03-29T14:10:19;98924.53;;;12.61;100.00
10060;BME280;5069;49.306;8.636;2024-03-29T14:13:19;98923.94;;;12.70;100.00
10060;BME280;5069;49.306;8.636;2024-03-29T14:16:20;98924.97;;;12.67;100.00
10060;BME280;5069;49.306;8.636;2024-03-29T14:19:21;98911.47;;;12.72;100.00
10060;BME280;5069;49.306;8.636;2024-03-29T14:22:21;98911.28;;;12.75;100.00
10060;BME280;5069;49.306;8.636;2024-03-29T14:25:24;98872.34;;;12.77;100.00
10060;BME280;5069;49.306;8.636;2024-03-29T14:28:24;98877.53;;;12.78;100.00
10060;BME280;5069;49.306;8.636;2024-03-29T14:31:25;98872.19;;;12.93;100.00
10060;BME280;5069;49.306;8.636;2024-03-29T14:34:25;98871.75;;;12.99;100.00
10060;BME280;5069;49.306;8.636;2024-03-29T14:37:26;98884.25;;;12.97;100.00
10060;BME280;5069;49.306;8.636;2024-03-29T14:40:27;98886.56;;;13.01;100.00
10060;BME280;5069;49.306;8.636;2024-03-29T14:43:28;98882.78;;;12.93;100.00
10060;BME280;5069;49.306;8.636;2024-03-29T14:46:28;98884.66;;;12.91;100.00
10060;BME280;5069;49.306;8.636;2024-03-29T14:49:29;98880.84;;;12.95;100.00
10060;BME280;5069;49.306;8.636;2024-03-29T14:52:29;98895.00;;;12.94;100.00
10060;BME280;5069;49.306;8.636;2024-03-29T14:55:30;98872.59;;;12.99;100.00
10060;BME280;5069;49.306;8.636;2024-03-29T14:58:31;98854.75;;;13.03;100.00
10060;BME280;5069;49.306;8.636;2024-03-29T15:01:32;98856.13;;;13.08;100.00
10060;BME280;5069;49.306;8.636;2024-03-29T15:04:33;98850.84;;;13.08;100.00
10060;BME280;5069;49.306;8.636;2024-03-29T15:07:33;98863.09;;;13.09;100.00
10060;BME280;5069;49.306;8.636;2024-03-29T15:10:34;98846.00;;;13.15;100.00
10060;BME280;5069;49.306;8.636;2024-03-29T15:13:35;98842.09;;;13.20;100.00
10060;BME280;5069;49.306;8.636;2024-03-29T15:16:35;98845.25;;;13.26;100.00
10060;BME280;5069;49.306;8.636;2024-03-29T15:19:36;98856.56;;;13.28;100.00
10060;BME280;5069;49.306;8.636;2024-03-29T15:22:37;98846.84;;;13.28;100.00
10060;BME280;5069;49.306;8.636;2024-03-29T15:25:38;98833.41;;;13.31;100.00
10060;BME280;5069;49.306;8.636;2024-03-29T15:28:42;98832.47;;;13.32;100.00
10060;BME280;5069;49.306;8.636;2024-03-29T15:32:02;98821.44;;;13.38;100.00
10060;BME280;5069;49.306;8.636;2024-03-29T15:35:03;98819.59;;;13.51;100.00
10060;BME280;5069;49.306;8.636;2024-03-29T15:38:04;98815.91;;;13.54;100.00
10060;BME280;5069;49.306;8.636;2024-03-29T15:41:12;98805.44;;;13.52;100.00
10060;BME280;5069;49.306;8.636;2024-03-29T15:44:12;98803.97;;;13.48;100.00
10060;BME280;5069;49.306;8.636;2024-03-29T15:47:15;98806.59;;;13.48;100.00
10060;BME280;5069;49.306;8.636;2024-03-29T15:50:16;98805.66;;;13.49;100.00
10060;BME280;5069;49.306;8.636;2024-03-29T15:53:17;98810.09;;;13.49;100.00
10060;BME280;5069;49.306;8.636;2024-03-29T15:56:18;98802.16;;;13.49;100.00
10060;BME280;5069;49.306;8.636;2024-03-29T15:59:19;98799.63;;;13.47;100.00
10060;BME280;5069;49.306;8.636;2024-03-29T16:02:23;98798.66;;;13.48;100.00
10060;BME280;5069;49.306;8.636;2024-03-29T16:05:23;98796.63;;;13.52;100.00
10060;BME280;5069;49.306;8.636;2024-03-29T16:08:24;98781.84;;;13.49;100.00